createdAt,value
2023-04-20T00:01:31.848Z,16.20
2023-04-20T00:03:59.998Z,15.33
2023-04-20T00:06:29.829Z,16.23
2023-04-20T00:08:58.123Z,16.80
2023-04-20T00:11:26.636Z,17.53
2023-04-20T00:13:56.059Z,17.27
2023-04-20T00:16:24.516Z,16.97
2023-04-20T00:18:52.589Z,17.37
2023-04-20T00:21:23.868Z,18.00
2023-04-20T00:23:52.700Z,18.97
2023-04-20T00:26:21.527Z,18.67
2023-04-20T00:28:55.033Z,19.10
2023-04-20T00:31:23.147Z,17.17
2023-04-20T00:33:51.262Z,17.70
2023-04-20T00:36:19.348Z,16.73
2023-04-20T00:38:47.415Z,18.10
2023-04-20T00:41:15.521Z,17.70
2023-04-20T00:43:52.040Z,18.33
2023-04-20T00:46:21.895Z,17.37
2023-04-20T00:48:51.783Z,17.00
2023-04-20T00:51:20.557Z,17.20
2023-04-20T00:53:48.563Z,16.90
2023-04-20T00:56:17.230Z,16.60
2023-04-20T00:58:45.239Z,16.83
2023-04-20T01:01:17.499Z,16.33
2023-04-20T01:03:48.966Z,16.23
2023-04-20T01:06:18.517Z,17.57
2023-04-20T01:08:48.566Z,15.93
2023-04-20T01:11:16.573Z,16.07
2023-04-20T01:13:45.105Z,15.27
2023-04-20T01:16:13.295Z,16.33
2023-04-20T01:18:46.502Z,16.57
2023-04-20T01:21:18.762Z,15.57
2023-04-20T01:23:48.477Z,16.13
2023-04-20T01:26:18.347Z,15.50
2023-04-20T01:28:47.110Z,15.83
2023-04-20T01:31:16.889Z,15.03
2023-04-20T01:33:44.986Z,15.77
2023-04-20T01:36:13.059Z,14.93
2023-04-20T01:38:41.219Z,14.60
2023-04-20T01:41:11.635Z,14.83
2023-04-20T01:43:40.689Z,15.40
2023-04-20T01:46:08.973Z,14.53
2023-04-20T01:48:37.105Z,14.87
2023-04-20T01:51:05.353Z,14.23
2023-04-20T01:53:34.105Z,14.57
2023-04-20T01:56:02.077Z,13.87
2023-04-20T01:58:31.615Z,14.50
2023-04-20T02:00:59.702Z,14.07
2023-04-20T02:03:28.646Z,13.67
2023-04-20T02:05:57.030Z,14.47
2023-04-20T02:08:29.478Z,14.30
2023-04-20T02:10:57.430Z,14.93
2023-04-20T02:13:25.701Z,13.77
2023-04-20T02:15:55.598Z,13.87
2023-04-20T02:18:24.476Z,13.57
2023-04-20T02:20:52.590Z,13.33
2023-04-20T02:23:20.602Z,13.83
2023-04-20T02:25:48.638Z,14.63
2023-04-20T02:28:16.616Z,14.27
2023-04-20T02:30:44.706Z,14.23
2023-04-20T02:33:14.487Z,14.00
2023-04-20T02:35:42.549Z,14.13
2023-04-20T02:38:12.207Z,13.20
2023-04-20T02:40:40.383Z,14.30
2023-04-20T02:43:09.321Z,14.63
2023-04-20T02:45:38.841Z,13.67
2023-04-20T02:48:08.418Z,14.13
2023-04-20T02:50:39.085Z,14.27
2023-04-20T02:53:15.529Z,12.90
2023-04-20T02:55:46.290Z,13.20
2023-04-20T02:58:34.249Z,13.17
2023-04-20T03:01:16.628Z,12.80
2023-04-20T03:03:46.848Z,12.67
2023-04-20T03:06:17.051Z,12.87
2023-04-20T03:08:50.894Z,12.43
2023-04-20T03:11:48.158Z,13.30
2023-04-20T03:14:29.524Z,13.90
2023-04-20T03:16:57.589Z,15.00
2023-04-20T03:19:25.886Z,15.93
2023-04-20T03:21:55.224Z,14.53
2023-04-20T03:24:24.090Z,15.23
2023-04-20T03:26:52.744Z,16.17
2023-04-20T03:29:29.730Z,15.70
2023-04-20T03:31:58.021Z,15.73
2023-04-20T03:34:26.730Z,16.57
2023-04-20T03:36:56.791Z,15.80
2023-04-20T03:39:24.878Z,15.37
2023-04-20T03:41:52.829Z,16.63
2023-04-20T03:44:20.795Z,16.60
2023-04-20T03:46:48.808Z,16.00
2023-04-20T03:49:17.075Z,16.67
2023-04-20T03:51:45.646Z,15.17
2023-04-20T03:54:15.001Z,14.67
2023-04-20T03:56:44.640Z,14.50
2023-04-20T03:59:13.836Z,15.83
2023-04-20T04:01:45.121Z,15.50
2023-04-20T04:04:14.679Z,14.93
2023-04-20T04:06:42.882Z,14.83
2023-04-20T04:09:10.845Z,14.83
2023-04-20T04:11:40.264Z,16.37
2023-04-20T04:14:08.335Z,15.73
2023-04-20T04:16:38.323Z,14.60
2023-04-20T04:19:06.368Z,15.57
2023-04-20T04:21:35.434Z,15.97
2023-04-20T04:24:05.922Z,16.67
2023-04-20T04:26:43.883Z,18.23
2023-04-20T04:29:14.007Z,17.37
2023-04-20T04:31:42.180Z,17.20
2023-04-20T04:34:18.312Z,16.60
2023-04-20T04:36:50.713Z,16.27
2023-04-20T04:39:24.423Z,18.13
2023-04-20T04:42:04.796Z,16.50
2023-04-20T04:44:40.952Z,18.00
2023-04-20T04:47:11.865Z,17.53
2023-04-20T04:49:43.615Z,16.97
2023-04-20T04:52:13.272Z,18.00
2023-04-20T04:54:41.391Z,17.90
2023-04-20T04:57:10.959Z,18.57
2023-04-20T04:59:38.974Z,18.20
2023-04-20T05:02:07.085Z,18.43
2023-04-20T05:04:35.388Z,18.40
2023-04-20T05:07:03.438Z,19.17
2023-04-20T05:09:33.514Z,18.50
2023-04-20T05:12:03.077Z,18.43
2023-04-20T05:14:33.505Z,17.80
2023-04-20T05:17:02.066Z,16.87
2023-04-20T05:19:30.172Z,19.43
2023-04-20T05:21:58.248Z,23.50
2023-04-20T05:24:26.347Z,40.33
2023-04-20T05:26:54.389Z,32.83
2023-04-20T05:29:22.491Z,17.33
2023-04-20T05:31:51.854Z,15.23
2023-04-20T05:34:19.865Z,14.73
2023-04-20T05:36:48.320Z,13.73
2023-04-20T05:39:16.660Z,13.70
2023-04-20T05:41:45.097Z,14.47
2023-04-20T05:44:13.273Z,10.00
2023-04-20T05:46:41.273Z,9.37
2023-04-20T05:49:10.699Z,9.20
2023-04-20T05:51:38.682Z,9.03
2023-04-20T05:54:06.915Z,8.70
2023-04-20T05:56:35.081Z,9.20
2023-04-20T05:59:03.337Z,8.67
2023-04-20T06:01:31.625Z,9.30
2023-04-20T06:03:59.850Z,8.87
2023-04-20T06:06:29.594Z,8.40
2023-04-20T06:08:58.350Z,8.77
2023-04-20T06:11:26.522Z,8.87
2023-04-20T06:13:54.555Z,8.20
2023-04-20T06:16:22.583Z,8.73
2023-04-20T06:18:50.934Z,8.23
2023-04-20T06:21:19.511Z,8.13
2023-04-20T06:23:48.819Z,7.83
2023-04-20T06:26:16.908Z,8.23
2023-04-20T06:28:45.516Z,8.27
2023-04-20T06:31:13.520Z,7.73
2023-04-20T06:33:41.520Z,8.07
2023-04-20T06:36:09.762Z,7.03
2023-04-20T06:38:37.781Z,10.00
2023-04-20T06:41:07.219Z,7.00
2023-04-20T06:43:35.260Z,7.27
2023-04-20T06:46:03.387Z,7.43
2023-04-20T06:48:32.735Z,7.57
2023-04-20T06:51:01.243Z,6.80
2023-04-20T06:53:29.297Z,6.97
2023-04-20T06:55:57.840Z,6.83
2023-04-20T06:58:42.559Z,6.90
2023-04-20T07:01:10.915Z,7.17
2023-04-20T07:03:39.254Z,6.70
2023-04-20T07:06:11.112Z,6.30
2023-04-20T07:08:40.416Z,6.70
2023-04-20T07:11:08.418Z,6.70
2023-04-20T07:13:37.778Z,5.70
2023-04-20T07:16:06.563Z,6.60
2023-04-20T07:18:35.363Z,9.13
2023-04-20T07:21:03.807Z,6.30
2023-04-20T07:23:31.761Z,9.43
2023-04-20T07:25:59.793Z,9.13
2023-04-20T07:28:27.780Z,5.93
2023-04-20T07:30:57.097Z,5.10
2023-04-20T07:33:25.268Z,5.50
2023-04-20T07:35:53.424Z,6.30
2023-04-20T07:38:21.533Z,5.90
2023-04-20T07:40:49.530Z,5.73
2023-04-20T07:43:17.605Z,5.33
2023-04-20T07:45:45.654Z,5.57
2023-04-20T07:48:15.129Z,6.50
2023-04-20T07:50:43.161Z,5.90
2023-04-20T07:53:11.294Z,6.73
2023-04-20T07:55:39.549Z,5.10
2023-04-20T07:58:07.617Z,5.70
2023-04-20T08:00:35.775Z,4.50
2023-04-20T08:03:04.032Z,4.60
2023-04-20T08:05:33.804Z,4.27
2023-04-20T08:08:01.863Z,4.07
2023-04-20T08:10:29.869Z,4.07
2023-04-20T08:12:58.548Z,4.10
2023-04-20T08:15:26.761Z,4.37
2023-04-20T08:17:54.842Z,4.10
2023-04-20T08:20:22.973Z,4.47
2023-04-20T08:22:53.275Z,4.00
2023-04-20T08:25:21.332Z,4.60
2023-04-20T08:27:49.445Z,4.23
2023-04-20T08:30:17.378Z,5.10
2023-04-20T08:32:45.377Z,4.03
2023-04-20T08:35:13.651Z,4.57
2023-04-20T08:37:42.081Z,4.63
2023-04-20T08:40:12.527Z,8.37
2023-04-20T08:42:40.660Z,5.97
2023-04-20T08:45:09.638Z,4.13
2023-04-20T08:47:38.542Z,4.00
2023-04-20T08:50:08.089Z,4.00
2023-04-20T08:52:38.649Z,5.00
2023-04-20T08:55:08.229Z,4.40
2023-04-20T08:57:37.531Z,3.80
2023-04-20T09:00:12.067Z,4.00
2023-04-20T09:02:51.500Z,3.93
2023-04-20T09:05:27.798Z,5.43
2023-04-20T09:07:57.923Z,2.70
2023-04-20T09:10:26.579Z,4.30
2023-04-20T09:12:55.938Z,4.80
2023-04-20T09:15:28.258Z,3.20
2023-04-20T09:17:56.580Z,3.70
2023-04-20T09:20:32.022Z,3.53
2023-04-20T09:23:11.914Z,3.40
2023-04-20T09:25:41.123Z,5.73
2023-04-20T09:28:11.424Z,3.10
2023-04-20T09:30:40.731Z,2.93
2023-04-20T09:33:10.913Z,3.03
2023-04-20T09:35:40.399Z,2.80
2023-04-20T09:38:08.402Z,2.95
2023-04-20T09:40:37.203Z,3.65
2023-04-20T09:43:09.844Z,2.60
2023-04-20T09:45:40.621Z,2.58
2023-04-20T09:48:09.282Z,3.08
2023-04-20T09:50:47.922Z,2.60
2023-04-20T09:53:18.619Z,2.90
2023-04-20T09:55:47.705Z,2.67
2023-04-20T09:58:15.981Z,2.97
2023-04-20T10:00:45.300Z,2.60
2023-04-20T10:03:17.185Z,2.55
2023-04-20T10:05:45.535Z,2.22
2023-04-20T10:08:13.717Z,2.55
2023-04-20T10:10:46.570Z,3.00
2023-04-20T10:13:15.195Z,2.42
2023-04-20T10:15:45.277Z,2.38
2023-04-20T10:18:18.681Z,2.42
2023-04-20T10:20:47.457Z,2.30
2023-04-20T10:23:16.611Z,2.78
2023-04-20T10:25:47.464Z,2.40
2023-04-20T10:28:15.772Z,2.40
2023-04-20T10:30:54.417Z,2.00
2023-04-20T10:33:22.933Z,2.33
2023-04-20T10:35:54.608Z,2.20
2023-04-20T10:38:33.018Z,2.17
2023-04-20T10:41:08.123Z,2.87
2023-04-20T10:43:38.970Z,2.20
2023-04-20T10:46:16.554Z,1.93
2023-04-20T10:49:03.842Z,2.28
2023-04-20T10:51:32.337Z,2.33
2023-04-20T10:54:06.019Z,2.20
2023-04-20T10:56:41.855Z,2.17
2023-04-20T10:59:14.235Z,2.10
2023-04-20T11:01:44.410Z,2.25
2023-04-20T11:04:14.094Z,2.35
2023-04-20T11:06:44.312Z,2.72
2023-04-20T11:09:20.367Z,2.53
2023-04-20T11:12:00.198Z,2.20
2023-04-20T11:14:28.140Z,2.10
2023-04-20T11:16:57.608Z,2.13
2023-04-20T11:19:29.122Z,2.25
2023-04-20T11:21:57.677Z,2.17
2023-04-20T11:24:26.964Z,2.83
2023-04-20T11:26:56.727Z,2.67
2023-04-20T11:29:29.965Z,2.20
2023-04-20T11:31:59.933Z,3.13
2023-04-20T11:34:28.288Z,2.30
2023-04-20T11:36:57.043Z,2.42
2023-04-20T11:39:25.851Z,2.33
2023-04-20T11:41:54.102Z,2.45
2023-04-20T11:44:22.619Z,2.42
2023-04-20T11:46:53.223Z,2.38
2023-04-20T11:49:22.913Z,2.28
2023-04-20T11:51:51.455Z,2.40
2023-04-20T11:54:20.148Z,2.63
2023-04-20T11:56:48.233Z,2.00
2023-04-20T11:59:19.733Z,2.78
2023-04-20T12:01:48.459Z,2.35
2023-04-20T12:04:17.000Z,2.53
2023-04-20T12:06:46.671Z,2.40
2023-04-20T12:09:14.866Z,2.25
2023-04-20T12:11:42.876Z,2.53
2023-04-20T12:14:10.792Z,2.53
2023-04-20T12:16:38.730Z,2.10
2023-04-20T12:19:06.661Z,2.42
2023-04-20T12:21:34.669Z,2.45
2023-04-20T12:24:04.730Z,2.00
2023-04-20T12:26:38.324Z,2.38
2023-04-20T12:29:07.793Z,2.20
2023-04-20T12:31:36.623Z,2.53
2023-04-20T12:34:04.841Z,2.90
2023-04-20T12:36:34.983Z,2.33
2023-04-20T12:39:05.137Z,2.50
2023-04-20T12:41:33.216Z,2.80
2023-04-20T12:44:04.151Z,2.33
2023-04-20T12:46:32.507Z,2.70
2023-04-20T12:49:00.490Z,2.70
2023-04-20T12:51:28.562Z,2.67
2023-04-20T12:53:56.593Z,2.20
2023-04-20T12:56:25.984Z,2.70
2023-04-20T12:58:53.974Z,2.70
2023-04-20T13:01:22.061Z,2.35
2023-04-20T13:03:51.930Z,2.70
2023-04-20T13:06:19.977Z,2.85
2023-04-20T13:08:48.123Z,2.40
2023-04-20T13:11:17.371Z,2.67
2023-04-20T13:13:46.672Z,3.00
2023-04-20T13:16:14.685Z,2.50
2023-04-20T13:18:42.726Z,2.83
2023-04-20T13:21:10.885Z,5.53
2023-04-20T13:23:39.976Z,2.70
2023-04-20T13:26:08.674Z,2.90
2023-04-20T13:28:37.678Z,2.60
2023-04-20T13:31:07.184Z,2.90
2023-04-20T13:33:35.256Z,3.50
2023-04-20T13:36:03.425Z,2.80
2023-04-20T13:38:31.530Z,3.30
2023-04-20T13:40:59.716Z,2.70
2023-04-20T13:43:27.838Z,3.30
2023-04-20T13:45:55.825Z,3.93
2023-04-20T13:48:25.304Z,4.27
2023-04-20T13:50:54.083Z,4.63
2023-04-20T13:53:22.591Z,4.30
2023-04-20T13:55:50.554Z,3.10
2023-04-20T13:58:18.492Z,3.10
2023-04-20T14:00:46.734Z,3.00
2023-04-20T14:03:15.530Z,3.10
2023-04-20T14:05:45.917Z,3.28
2023-04-20T14:08:14.734Z,3.13
2023-04-20T14:10:42.754Z,3.07
2023-04-20T14:13:10.792Z,3.20
2023-04-20T14:15:38.873Z,3.28
2023-04-20T14:18:07.035Z,2.90
2023-04-20T14:20:35.103Z,2.90
2023-04-20T14:23:04.526Z,3.17
2023-04-20T14:25:32.580Z,3.53
2023-04-20T14:28:00.554Z,3.20
2023-04-20T14:30:28.708Z,2.78
2023-04-20T14:32:58.017Z,2.88
2023-04-20T14:35:27.464Z,3.33
2023-04-20T14:37:55.615Z,4.50
2023-04-20T14:40:25.008Z,5.47
2023-04-20T14:42:53.022Z,3.47
2023-04-20T14:45:21.780Z,3.70
2023-04-20T14:47:54.223Z,3.40
2023-04-20T14:50:23.244Z,3.47
2023-04-20T14:52:51.176Z,3.30
2023-04-20T14:55:23.318Z,3.30
2023-04-20T14:57:55.259Z,3.30
2023-04-20T15:00:24.452Z,3.57
2023-04-20T15:02:53.947Z,3.87
2023-04-20T15:05:22.211Z,3.40
2023-04-20T15:07:50.905Z,3.60
2023-04-20T15:10:19.170Z,3.78
2023-04-20T15:12:49.097Z,3.80
2023-04-20T15:15:18.539Z,3.70
2023-04-20T15:17:47.437Z,3.50
2023-04-20T15:20:16.442Z,3.57
2023-04-20T15:22:44.486Z,3.97
2023-04-20T15:25:12.597Z,3.47
2023-04-20T15:27:40.995Z,3.90
2023-04-20T15:30:10.173Z,3.80
2023-04-20T15:32:40.187Z,4.17
2023-04-20T15:35:08.356Z,3.90
2023-04-20T15:37:36.290Z,4.03
2023-04-20T15:40:05.453Z,4.20
2023-04-20T15:42:33.926Z,4.33
2023-04-20T15:45:01.926Z,3.70
2023-04-20T15:47:29.927Z,3.80
2023-04-20T15:50:01.430Z,3.83
2023-04-20T15:52:30.564Z,3.83
2023-04-20T15:54:58.711Z,3.77
2023-04-20T15:57:26.731Z,4.40
2023-04-20T15:59:55.666Z,4.00
2023-04-20T16:02:24.024Z,4.10
2023-04-20T16:04:52.378Z,4.07
2023-04-20T16:07:21.824Z,4.17
2023-04-20T16:09:50.102Z,3.97
2023-04-20T16:12:18.105Z,4.00
2023-04-20T16:14:46.085Z,4.17
2023-04-20T16:17:14.150Z,3.90
2023-04-20T16:19:42.465Z,4.27
2023-04-20T16:22:10.550Z,4.40
2023-04-20T16:24:40.177Z,4.53
2023-04-20T16:27:08.490Z,4.87
2023-04-20T16:29:37.161Z,4.37
2023-04-20T16:32:05.444Z,4.77
2023-04-20T16:34:33.457Z,4.40
2023-04-20T16:37:01.511Z,4.70
2023-04-20T16:39:29.604Z,5.10
2023-04-20T16:41:58.987Z,4.87
2023-04-20T16:44:27.072Z,4.70
2023-04-20T16:46:55.782Z,5.13
2023-04-20T16:49:24.066Z,5.13
2023-04-20T16:51:52.460Z,4.73
2023-04-20T16:54:21.454Z,6.03
2023-04-20T16:56:51.432Z,4.70
2023-04-20T16:59:20.825Z,4.80
2023-04-20T17:01:50.210Z,5.33
2023-04-20T17:04:18.730Z,5.17
2023-04-20T17:06:47.337Z,5.23
2023-04-20T17:09:15.512Z,5.33
2023-04-20T17:11:43.486Z,4.93
2023-04-20T17:14:11.700Z,5.10
2023-04-20T17:16:41.157Z,5.53
2023-04-20T17:19:21.178Z,5.30
2023-04-20T17:22:08.346Z,5.00
2023-04-20T17:24:40.977Z,5.43
2023-04-20T17:27:09.135Z,5.20
2023-04-20T17:29:38.705Z,5.73
2023-04-20T17:32:08.691Z,5.73
2023-04-20T17:34:36.930Z,5.73
2023-04-20T17:37:04.914Z,6.30
2023-04-20T17:39:32.994Z,6.47
2023-04-20T17:42:01.520Z,5.93
2023-04-20T17:44:29.540Z,6.17
2023-04-20T17:46:59.236Z,6.13
2023-04-20T17:49:31.112Z,5.83
2023-04-20T17:51:59.509Z,5.97
2023-04-20T17:54:27.544Z,5.53
2023-04-20T17:56:56.907Z,5.20
2023-04-20T17:59:24.833Z,5.60
2023-04-20T18:01:53.115Z,6.17
2023-04-20T18:04:21.975Z,6.27
2023-04-20T18:06:52.417Z,5.93
2023-04-20T18:09:20.506Z,5.77
2023-04-20T18:11:48.511Z,6.33
2023-04-20T18:14:16.763Z,6.83
2023-04-20T18:16:44.994Z,5.90
2023-04-20T18:19:13.016Z,6.17
2023-04-20T18:21:41.082Z,6.43
2023-04-20T18:24:13.071Z,6.60
2023-04-20T18:26:41.213Z,6.83
2023-04-20T18:29:09.241Z,6.80
2023-04-20T18:31:37.363Z,7.10
2023-04-20T18:34:05.973Z,7.20
2023-04-20T18:36:33.955Z,8.80
2023-04-20T18:39:01.958Z,8.83
2023-04-20T18:41:31.390Z,8.67
2023-04-20T18:43:59.513Z,8.63
2023-04-20T18:46:27.594Z,8.90
2023-04-20T18:48:55.658Z,8.33
2023-04-20T18:51:23.672Z,9.17
2023-04-20T18:53:51.649Z,9.40
2023-04-20T18:56:19.629Z,9.13
2023-04-20T18:58:49.136Z,9.20
2023-04-20T19:01:18.095Z,9.43
2023-04-20T19:03:47.992Z,10.13
2023-04-20T19:06:16.561Z,9.90
2023-04-20T19:08:44.535Z,8.93
2023-04-20T19:11:12.586Z,9.10
2023-04-20T19:13:44.411Z,9.37
2023-04-20T19:16:14.110Z,9.60
2023-04-20T19:18:42.124Z,9.60
2023-04-20T19:21:11.173Z,9.17
2023-04-20T19:23:39.160Z,8.53
2023-04-20T19:26:07.166Z,8.47
2023-04-20T19:28:35.560Z,8.30
2023-04-20T19:31:03.713Z,8.23
2023-04-20T19:33:33.062Z,8.13
2023-04-20T19:36:03.270Z,8.20
2023-04-20T19:38:32.766Z,8.87
2023-04-20T19:41:01.144Z,8.30
2023-04-20T19:43:29.190Z,8.67
2023-04-20T19:45:57.235Z,8.83
2023-04-20T19:48:25.577Z,9.30
2023-04-20T19:50:56.542Z,9.03
2023-04-20T19:53:25.179Z,8.77
2023-04-20T19:55:53.222Z,9.00
2023-04-20T19:58:21.362Z,11.97
2023-04-20T20:00:49.481Z,8.70
2023-04-20T20:03:17.683Z,8.73
2023-04-20T20:05:45.946Z,8.83
2023-04-20T20:08:16.535Z,8.47
2023-04-20T20:10:44.536Z,8.23
2023-04-20T20:13:12.604Z,8.60
2023-04-20T20:15:40.730Z,8.70
2023-04-20T20:18:10.553Z,8.50
2023-04-20T20:20:38.727Z,8.53
2023-04-20T20:23:06.679Z,8.07
2023-04-20T20:25:36.190Z,8.20
2023-04-20T20:28:04.161Z,7.40
2023-04-20T20:30:32.249Z,8.23
2023-04-20T20:33:00.827Z,8.57
2023-04-20T20:35:31.137Z,8.13
2023-04-20T20:37:59.361Z,7.83
2023-04-20T20:40:27.381Z,7.90
2023-04-20T20:42:56.868Z,8.60
2023-04-20T20:45:25.113Z,8.47
2023-04-20T20:47:53.184Z,8.80
2023-04-20T20:50:21.456Z,9.47
2023-04-20T20:52:49.553Z,8.00
2023-04-20T20:55:17.662Z,8.77
2023-04-20T20:57:46.005Z,8.57
2023-04-20T21:00:16.339Z,9.40
2023-04-20T21:02:44.463Z,8.63
2023-04-20T21:05:12.616Z,8.40
2023-04-20T21:07:40.908Z,9.03
2023-04-20T21:10:09.714Z,8.10
2023-04-20T21:12:37.696Z,7.73
2023-04-20T21:15:06.502Z,7.87
2023-04-20T21:17:35.997Z,7.67
2023-04-20T21:20:05.769Z,7.00
2023-04-20T21:22:33.858Z,7.50
2023-04-20T21:25:01.860Z,7.67
2023-04-20T21:27:29.959Z,7.60
2023-04-20T21:29:57.989Z,7.90
2023-04-20T21:32:27.185Z,8.27
2023-04-20T21:34:56.624Z,7.47
2023-04-20T21:37:24.594Z,7.90
2023-04-20T21:39:52.683Z,7.60
2023-04-20T21:42:20.699Z,8.23
2023-04-20T21:44:48.723Z,8.40
2023-04-20T21:47:16.927Z,8.50
2023-04-20T21:49:44.986Z,8.17
2023-04-20T21:52:14.313Z,8.33
2023-04-20T21:54:42.531Z,8.13
2023-04-20T21:57:10.545Z,8.33
2023-04-20T21:59:38.509Z,8.87
2023-04-20T22:02:06.525Z,7.83
2023-04-20T22:04:34.995Z,8.07
2023-04-20T22:07:03.152Z,8.07
2023-04-20T22:09:32.617Z,8.27
2023-04-20T22:12:02.025Z,8.10
2023-04-20T22:14:30.482Z,8.23
2023-04-20T22:16:59.442Z,7.90
2023-04-20T22:19:27.727Z,8.13
2023-04-20T22:21:55.708Z,7.43
2023-04-20T22:24:24.103Z,7.87
2023-04-20T22:26:53.474Z,8.20
2023-04-20T22:29:21.700Z,8.13
2023-04-20T22:31:49.801Z,8.67
2023-04-20T22:34:17.888Z,8.43
2023-04-20T22:36:46.332Z,7.93
2023-04-20T22:39:14.289Z,7.70
2023-04-20T22:41:42.310Z,8.43
2023-04-20T22:44:14.361Z,8.17
2023-04-20T22:46:42.342Z,8.87
2023-04-20T22:49:10.898Z,8.77
2023-04-20T22:51:38.804Z,8.37
2023-04-20T22:54:06.837Z,8.23
2023-04-20T22:56:35.149Z,8.47
2023-04-20T22:59:03.093Z,7.97
2023-04-20T23:01:32.414Z,8.33
2023-04-20T23:04:00.761Z,8.07
2023-04-20T23:06:29.680Z,7.70
2023-04-20T23:08:59.061Z,7.83
2023-04-20T23:11:29.046Z,8.03
2023-04-20T23:13:57.220Z,8.27
2023-04-20T23:16:28.059Z,7.63
2023-04-20T23:18:57.440Z,8.27
2023-04-20T23:21:25.501Z,8.33
2023-04-20T23:23:53.447Z,7.63
2023-04-20T23:26:21.394Z,7.70
2023-04-20T23:28:51.370Z,7.80
2023-04-20T23:31:19.520Z,8.23
2023-04-20T23:33:48.311Z,7.77
2023-04-20T23:36:17.698Z,7.63
2023-04-20T23:38:45.670Z,7.87
2023-04-20T23:41:15.137Z,8.00
2023-04-20T23:43:43.236Z,8.43
2023-04-20T23:46:12.631Z,7.93
2023-04-20T23:48:40.667Z,7.83
2023-04-20T23:51:08.641Z,8.27
2023-04-20T23:53:39.117Z,8.03
2023-04-20T23:56:08.121Z,7.53
2023-04-20T23:58:36.357Z,7.60
